Time;durP1;ratioP1;P1;durP2;ratioP2;P2;SDS_P1;SDS_P2;PMS_P1;PMS_P2;Temp;Humidity;BMP_temperature;BMP_pressure;BME280_temperature;BME280_humidity;BME280_pressure;Samples;Min_cycle;Max_cycle;Signal;HPM_P1;HPM_P2
2021/12/31 00:02:23;;;;;;;5.53;2.25;;;;;;;12.15;92.55;101826.56;4973729;28;100956;-42
2021/12/31 00:04:50;;;;;;;4.70;2.30;;;;;;;12.17;92.65;101824.66;4975233;28;96646;-42
2021/12/31 00:07:16;;;;;;;7.63;2.08;;;;;;;12.19;92.52;101821.88;4975150;28;96828;-42
2021/12/31 00:09:42;;;;;;;6.65;2.80;;;;;;;12.27;92.66;101836.78;4973280;28;100877;-42
2021/12/31 00:12:08;;;;;;;4.82;2.08;;;;;;;12.32;92.48;101845.59;4974712;28;99130;-42
2021/12/31 00:14:34;;;;;;;6.72;1.70;;;;;;;12.32;92.41;101833.81;4973657;28;96602;-41
2021/12/31 00:17:00;;;;;;;6.60;2.38;;;;;;;12.32;92.41;101828.38;4974029;28;96877;-42
2021/12/31 00:19:29;;;;;;;3.67;1.92;;;;;;;12.33;92.38;101841.91;4975164;28;97391;-42
2021/12/31 00:21:56;;;;;;;3.28;1.92;;;;;;;12.25;92.34;101819.72;4974558;28;98611;-42
2021/12/31 00:24:24;;;;;;;5.63;2.00;;;;;;;12.33;92.22;101836.47;4973148;28;96602;-42
2021/12/31 00:26:49;;;;;;;5.13;2.58;;;;;;;12.27;92.21;101816.91;4973505;28;96830;-42
2021/12/31 00:29:14;;;;;;;2.83;1.88;;;;;;;12.18;92.27;101803.78;4973184;28;101227;-42
2021/12/31 00:31:40;;;;;;;4.40;1.67;;;;;;;12.32;92.25;101823.84;4973709;28;124644;-42
2021/12/31 00:34:05;;;;;;;5.85;1.85;;;;;;;12.28;91.65;101816.81;4974103;28;111159;-42
2021/12/31 00:36:47;;;;;;;3.97;2.13;;;;;;;12.32;91.83;101818.44;4975105;28;96754;-42
2021/12/31 00:39:14;;;;;;;3.47;1.92;;;;;;;12.23;92.31;101799.03;4974556;28;99657;-42
2021/12/31 00:41:40;;;;;;;4.78;1.90;;;;;;;12.33;91.80;101822.88;4973441;28;100425;-42
2021/12/31 00:44:05;;;;;;;8.10;2.70;;;;;;;12.37;91.99;101825.44;4973402;28;96765;-42
2021/12/31 00:46:31;;;;;;;4.05;2.00;;;;;;;12.41;91.87;101830.63;4974231;28;97219;-42
2021/12/31 00:48:57;;;;;;;6.18;2.03;;;;;;;12.32;91.53;101817.53;4974118;28;98007;-42
2021/12/31 00:51:23;;;;;;;4.63;1.88;;;;;;;12.33;91.64;101812.00;4973020;28;100863;-42
2021/12/31 00:53:48;;;;;;;2.85;1.80;;;;;;;12.31;91.64;101808.50;4974781;28;96506;-42
2021/12/31 00:56:14;;;;;;;2.95;1.52;;;;;;;12.44;91.41;101830.47;4973539;28;117038;-42
2021/12/31 00:58:39;;;;;;;4.75;1.90;;;;;;;12.35;91.40;101809.22;4973668;28;117518;-42
2021/12/31 01:01:04;;;;;;;4.22;2.10;;;;;;;12.40;91.46;101817.13;4974154;28;97791;-42
2021/12/31 01:03:30;;;;;;;8.40;2.30;;;;;;;12.44;91.37;101821.41;4974480;28;96608;-42
2021/12/31 01:05:55;;;;;;;2.95;1.27;;;;;;;12.34;91.03;101807.44;4974849;28;96841;-42
2021/12/31 01:08:21;;;;;;;5.50;1.88;;;;;;;12.44;91.23;101827.75;4977025;28;99626;-42
2021/12/31 01:10:46;;;;;;;6.95;1.83;;;;;;;12.38;91.08;101814.50;4977800;28;97787;-41
2021/12/31 01:13:19;;;;;;;9.52;1.50;;;;;;;12.26;90.96;101793.41;4977905;28;96720;-42
2021/12/31 01:15:46;;;;;;;6.38;1.98;;;;;;;12.36;91.10;101810.97;4976521;28;96744;-42
2021/12/31 01:20:38;;;;;;;8.73;1.67;;;;;;;12.45;91.13;101834.06;4977541;28;97623;-42
2021/12/31 01:23:04;;;;;;;5.22;1.70;;;;;;;12.37;90.96;101822.72;4976316;28;96685;-42
2021/12/31 01:25:30;;;;;;;3.28;1.60;;;;;;;12.36;90.88;101813.69;4977875;28;96626;-42
2021/12/31 01:27:55;;;;;;;4.00;1.45;;;;;;;12.40;90.89;101817.13;4975858;28;99586;-42
2021/12/31 01:30:21;;;;;;;2.33;1.27;;;;;;;12.41;90.70;101824.31;4977680;28;98813;-42
2021/12/31 01:32:46;;;;;;;2.30;1.23;;;;;;;12.40;90.28;101823.44;4976055;28;96587;-42
2021/12/31 01:35:13;;;;;;;5.45;1.58;;;;;;;12.41;90.76;101824.31;4977701;28;96718;-42
2021/12/31 01:37:39;;;;;;;2.22;1.30;;;;;;;12.41;90.79;101821.59;4975248;28;100819;-42
2021/12/31 01:40:05;;;;;;;3.55;1.98;;;;;;;12.50;90.62;101835.56;4976955;28;99118;-42
2021/12/31 01:42:33;;;;;;;2.25;1.33;;;;;;;12.42;90.60;101817.91;4977310;28;96473;-42
2021/12/31 01:45:06;;;;;;;3.83;1.65;;;;;;;12.41;90.39;101822.47;4976064;28;96791;-42
2021/12/31 01:47:44;;;;;;;3.45;1.73;;;;;;;12.56;90.16;101839.81;4975396;28;101284;-42
2021/12/31 01:50:10;;;;;;;4.57;1.35;;;;;;;12.43;90.44;101820.56;4975650;28;100822;-42
2021/12/31 01:52:35;;;;;;;9.38;1.60;;;;;;;12.56;90.22;101839.81;4977371;28;96533;-42
2021/12/31 01:55:03;;;;;;;7.50;1.50;;;;;;;12.55;90.19;101838.03;4977475;28;96872;-42
2021/12/31 01:57:29;;;;;;;3.03;1.58;;;;;;;12.40;90.27;101819.84;4975282;28;102158;-42
2021/12/31 01:59:55;;;;;;;4.70;1.55;;;;;;;12.54;89.89;101833.56;4974757;28;100707;-42
2021/12/31 02:02:20;;;;;;;6.30;1.80;;;;;;;12.56;90.21;101839.81;4975263;28;96674;-42
2021/12/31 02:04:46;;;;;;;8.93;1.98;;;;;;;12.52;90.04;101833.66;4977119;28;96782;-42
2021/12/31 02:07:11;;;;;;;3.70;1.80;;;;;;;12.49;90.06;101831.09;4976656;28;99292;-42
2021/12/31 02:09:47;;;;;;;2.92;2.05;;;;;;;12.46;90.02;101830.38;4976807;28;97779;-42
2021/12/31 02:12:12;;;;;;;5.93;1.52;;;;;;;12.53;90.26;101837.25;4975683;28;96729;-42
2021/12/31 02:14:38;;;;;;;2.65;1.40;;;;;;;12.54;90.11;101836.28;4976882;28;96851;-42
2021/12/31 02:17:09;;;;;;;2.20;1.15;;;;;;;12.52;90.13;101835.50;4976730;28;97660;-42
2021/12/31 02:19:35;;;;;;;6.63;1.40;;;;;;;12.41;90.19;101821.59;4976166;28;97879;-42
2021/12/31 02:22:01;;;;;;;3.15;1.60;;;;;;;12.49;89.90;101831.09;4975348;28;96493;-42
2021/12/31 02:24:27;;;;;;;3.47;1.77;;;;;;;12.50;90.25;101834.69;4976595;28;96836;-42
2021/12/31 02:26:52;;;;;;;5.03;1.88;;;;;;;12.51;89.95;101840.06;4975725;28;99394;-42
2021/12/31 02:29:18;;;;;;;6.93;1.80;;;;;;;12.52;89.99;101838.22;4976216;28;97226;-42
2021/12/31 02:31:44;;;;;;;5.78;1.83;;;;;;;12.42;90.02;101817.91;4975372;28;96613;-42
2021/12/31 02:34:10;;;;;;;3.45;1.17;;;;;;;12.50;90.01;101831.97;4975308;28;96791;-42
2021/12/31 02:36:35;;;;;;;7.00;1.30;;;;;;;12.43;90.12;101827.84;4974728;28;100798;-42
2021/12/31 02:39:00;;;;;;;5.82;1.73;;;;;;;12.51;90.05;101836.44;4976631;28;97265;-41
2021/12/31 02:41:26;;;;;;;2.15;1.23;;;;;;;12.45;89.79;101823.19;4976377;28;102842;-42
2021/12/31 02:43:51;;;;;;;2.50;1.27;;;;;;;12.43;89.91;101819.69;4976926;28;96939;-42
2021/12/31 02:46:17;;;;;;;2.47;1.33;;;;;;;12.41;89.82;101806.16;4975398;28;117700;-42
2021/12/31 02:48:43;;;;;;;1.75;1.27;;;;;;;12.49;89.82;101820.22;4975923;28;99305;-42
2021/12/31 02:51:08;;;;;;;4.32;1.17;;;;;;;12.52;89.88;101830.06;4975878;28;96550;-42
2021/12/31 02:53:39;;;;;;;2.85;1.67;;;;;;;12.39;89.55;101805.38;4976065;28;96887;-42
2021/12/31 02:56:08;;;;;;;2.43;1.13;;;;;;;12.47;89.70;101824.00;4974174;28;101380;-42
2021/12/31 02:58:35;;;;;;;2.30;1.23;;;;;;;12.40;89.77;101818.00;4974516;28;101252;-42
2021/12/31 03:01:01;;;;;;;4.10;1.50;;;;;;;12.28;89.31;101800.53;4974467;28;96925;-42
2021/12/31 03:03:28;;;;;;;3.55;1.35;;;;;;;12.42;89.37;101828.78;4974855;28;96859;-42
2021/12/31 03:05:55;;;;;;;5.72;2.28;;;;;;;12.48;89.80;101836.59;4974441;28;99142;-42
2021/12/31 03:08:23;;;;;;;4.70;1.48;;;;;;;12.47;89.60;101846.59;4976170;28;97923;-42
2021/12/31 03:10:49;;;;;;;7.10;1.67;;;;;;;12.40;89.35;101823.44;4974683;28;96718;-42
2021/12/31 03:13:16;;;;;;;2.45;1.15;;;;;;;12.40;89.42;101822.56;4976088;28;96802;-42
2021/12/31 03:15:42;;;;;;;2.40;1.40;;;;;;;12.49;89.25;101827.50;4973803;28;100748;-42
2021/12/31 03:18:10;;;;;;;3.53;1.80;;;;;;;12.52;89.05;101821.91;4974147;28;100622;-42
2021/12/31 03:20:36;;;;;;;2.78;1.40;;;;;;;12.42;89.13;101804.31;4974613;28;96616;-42
2021/12/31 03:23:03;;;;;;;4.97;1.52;;;;;;;12.39;89.14;101793.63;4974403;28;96939;-42
2021/12/31 03:25:28;;;;;;;4.43;1.27;;;;;;;12.50;88.88;101812.94;4974160;28;101508;-42
2021/12/31 03:27:53;;;;;;;2.58;1.35;;;;;;;12.51;89.31;101803.81;4975160;28;111279;-42
2021/12/31 03:30:19;;;;;;;6.35;1.50;;;;;;;12.48;89.29;101802.16;4975465;28;96639;-42
2021/12/31 03:32:44;;;;;;;2.58;1.27;;;;;;;12.41;88.94;101791.72;4976019;28;96871;-42
2021/12/31 03:35:10;;;;;;;5.60;1.30;;;;;;;12.45;89.02;101790.59;4975172;28;105311;-42
2021/12/31 03:37:35;;;;;;;3.85;1.05;;;;;;;12.37;88.89;101773.81;4975527;28;97875;-42
2021/12/31 03:40:01;;;;;;;4.25;1.67;;;;;;;12.46;89.10;101806.78;4975093;28;96666;-42
2021/12/31 03:42:26;;;;;;;8.70;2.20;;;;;;;12.38;88.98;101795.47;4975642;28;96767;-42
2021/12/31 03:44:51;;;;;;;4.97;1.67;;;;;;;12.43;88.70;101809.69;4975181;28;99870;-42
2021/12/31 03:47:16;;;;;;;3.33;1.58;;;;;;;12.37;88.92;101791.00;4974273;28;119758;-42
2021/12/31 03:49:42;;;;;;;3.80;1.30;;;;;;;12.47;88.84;101821.28;4974520;28;117111;-42
2021/12/31 03:52:07;;;;;;;6.85;1.60;;;;;;;12.46;88.81;101819.50;4975403;28;96809;-42
2021/12/31 03:54:32;;;;;;;8.15;1.38;;;;;;;12.44;88.83;101822.31;4975193;28;97761;-42
2021/12/31 03:56:58;;;;;;;4.57;1.38;;;;;;;12.37;89.04;101803.69;4974310;28;126701;-42
2021/12/31 03:59:23;;;;;;;4.90;1.42;;;;;;;12.42;88.47;101824.25;4975459;28;96472;-42
2021/12/31 04:01:48;;;;;;;2.03;0.77;;;;;;;12.43;88.88;101825.13;4974531;28;96825;-42
2021/12/31 04:04:14;;;;;;;5.90;1.55;;;;;;;12.33;88.68;101806.59;4973605;28;126888;-42
2021/12/31 04:06:40;;;;;;;3.70;1.88;;;;;;;12.40;88.84;101820.72;4974840;28;99238;-42
2021/12/31 04:09:06;;;;;;;5.25;1.48;;;;;;;12.30;88.79;101803.16;4973543;28;96647;-42
2021/12/31 04:11:31;;;;;;;6.07;1.70;;;;;;;12.32;88.98;101809.38;4973808;28;96866;-42
2021/12/31 04:13:57;;;;;;;3.10;1.70;;;;;;;12.42;89.01;101823.34;4975158;28;97589;-42
2021/12/31 04:16:22;;;;;;;5.30;1.33;;;;;;;12.30;88.63;101798.59;4974783;28;99129;-42
2021/12/31 04:18:47;;;;;;;3.05;1.27;;;;;;;12.40;88.89;101814.41;4975249;28;96582;-42
2021/12/31 04:21:18;;;;;;;4.88;1.83;;;;;;;12.31;88.62;101799.47;4974757;28;113347;-42
2021/12/31 04:23:53;;;;;;;2.05;1.02;;;;;;;12.40;88.74;101811.69;4973003;28;100986;-42
2021/12/31 04:26:19;;;;;;;4.30;1.20;;;;;;;12.30;88.63;101786.88;4973301;28;101554;-42
2021/12/31 04:28:45;;;;;;;2.47;1.52;;;;;;;12.42;88.58;101804.31;4973044;28;96531;-42
2021/12/31 04:31:11;;;;;;;1.52;1.17;;;;;;;12.40;88.57;101808.97;4973509;28;96822;-42
2021/12/31 04:33:38;;;;;;;3.20;1.77;;;;;;;12.38;88.32;101808.19;4973138;28;100825;-42
2021/12/31 04:36:04;;;;;;;3.38;1.70;;;;;;;12.30;88.47;101797.75;4973192;28;101115;-42
2021/12/31 04:38:29;;;;;;;1.63;0.95;;;;;;;12.31;88.19;101802.19;4973228;28;96616;-42
2021/12/31 04:40:54;;;;;;;2.30;1.48;;;;;;;12.30;88.32;101792.31;4974683;28;96796;-42
2021/12/31 04:43:20;;;;;;;4.72;1.50;;;;;;;12.32;88.36;101790.34;4977446;28;97914;-42
2021/12/31 04:45:45;;;;;;;5.13;1.25;;;;;;;12.32;88.26;101779.47;4978319;28;97300;-42
2021/12/31 04:48:10;;;;;;;2.63;1.80;;;;;;;12.29;88.00;101785.97;4977793;28;107380;-42
2021/12/31 04:50:36;;;;;;;4.10;1.80;;;;;;;12.42;88.30;101794.34;4978401;28;96762;-42
2021/12/31 04:53:04;;;;;;;2.50;1.17;;;;;;;12.29;88.34;101775.09;4977308;28;99344;-42
2021/12/31 04:55:30;;;;;;;3.90;1.50;;;;;;;12.28;88.21;101759.78;4976182;28;101210;-42
2021/12/31 04:57:55;;;;;;;3.78;1.42;;;;;;;12.31;88.02;101761.44;4976850;28;96616;-42
2021/12/31 05:00:20;;;;;;;2.50;1.58;;;;;;;12.27;87.97;101732.69;4975702;28;113570;-42
2021/12/31 05:02:46;;;;;;;2.72;1.20;;;;;;;12.33;87.72;101757.69;4977886;28;97705;-42
2021/12/31 05:05:11;;;;;;;4.60;1.40;;;;;;;12.21;87.86;101735.75;4977948;28;97833;-42
2021/12/31 05:07:37;;;;;;;4.97;1.42;;;;;;;12.26;88.03;101747.25;4977519;28;96934;-42
2021/12/31 05:10:03;;;;;;;5.95;1.30;;;;;;;12.22;88.07;101751.94;4976846;28;96828;-42
2021/12/31 05:12:32;;;;;;;2.90;1.33;;;;;;;12.23;87.90;101761.88;4976237;28;102068;-42
2021/12/31 05:14:57;;;;;;;2.55;1.42;;;;;;;12.20;87.83;101756.56;4977376;28;99262;-42
2021/12/31 05:17:22;;;;;;;1.98;1.25;;;;;;;12.10;87.97;101730.88;4977381;28;96453;-42
2021/12/31 05:19:48;;;;;;;3.78;1.40;;;;;;;12.15;87.79;101736.94;4977579;28;96865;-42
2021/12/31 05:22:14;;;;;;;5.70;1.55;;;;;;;12.15;88.04;101746.94;4975974;28;101088;-42
2021/12/31 05:24:40;;;;;;;1.60;1.27;;;;;;;12.12;87.66;101745.25;4977466;28;97920;-42
2021/12/31 05:27:07;;;;;;;2.22;1.30;;;;;;;12.00;87.48;101735.06;4976207;28;96628;-42
2021/12/31 05:29:33;;;;;;;4.15;1.85;;;;;;;11.99;87.73;101734.19;4976134;28;96912;-42
2021/12/31 05:31:58;;;;;;;2.63;1.48;;;;;;;12.05;87.94;101766.44;4975983;28;100195;-42
2021/12/31 05:34:24;;;;;;;2.70;1.35;;;;;;;12.04;87.81;101777.41;4977244;28;114783;-42
2021/12/31 05:36:49;;;;;;;3.05;1.77;;;;;;;12.06;87.81;101764.59;4977345;28;96651;-42
2021/12/31 05:39:14;;;;;;;8.32;2.15;;;;;;;11.93;87.52;101745.34;4976718;28;113187;-42
2021/12/31 05:41:40;;;;;;;4.03;1.80;;;;;;;11.99;87.81;101760.44;4975413;28;99493;-42
2021/12/31 05:44:09;;;;;;;2.80;1.75;;;;;;;12.01;87.17;101766.66;4977141;28;97841;-42
2021/12/31 05:46:35;;;;;;;2.65;1.60;;;;;;;11.96;87.71;101768.75;4975820;28;96553;-42
2021/12/31 05:49:02;;;;;;;2.33;1.35;;;;;;;11.92;87.05;101743.63;4975759;28;96920;-42
2021/12/31 05:51:27;;;;;;;2.17;0.95;;;;;;;11.83;87.74;101753.06;4975697;28;100858;-42
2021/12/31 05:54:05;;;;;;;3.90;1.52;;;;;;;11.82;87.73;101755.88;4977049;28;97778;-42
2021/12/31 05:56:30;;;;;;;2.85;1.65;;;;;;;11.78;87.33;101755.16;4976698;28;100222;-41
2021/12/31 05:58:56;;;;;;;4.28;1.52;;;;;;;11.83;87.30;101766.66;4977647;28;96764;-41
2021/12/31 06:01:21;;;;;;;7.15;1.38;;;;;;;11.86;87.74;101782.78;4975729;28;119733;-42
2021/12/31 06:03:46;;;;;;;1.95;1.13;;;;;;;11.85;87.74;101777.44;4976267;28;108958;-42
2021/12/31 06:06:12;;;;;;;7.22;1.65;;;;;;;11.84;87.40;101783.81;4976453;28;96556;-42
2021/12/31 06:08:38;;;;;;;5.93;1.48;;;;;;;11.82;87.82;101785.72;4976144;28;117384;-42
2021/12/31 06:11:03;;;;;;;2.25;1.48;;;;;;;11.68;87.65;101762.03;4974324;28;124692;-42
2021/12/31 06:13:30;;;;;;;5.97;1.70;;;;;;;11.80;87.71;101777.69;4976781;28;97791;-41
2021/12/31 06:15:58;;;;;;;4.03;1.08;;;;;;;11.79;87.64;101762.34;4977020;28;96589;-42
2021/12/31 06:18:26;;;;;;;3.92;1.60;;;;;;;11.77;87.58;101755.22;4975436;28;96840;-42
2021/12/31 06:20:52;;;;;;;7.45;1.30;;;;;;;11.73;87.48;101751.81;4975208;28;98915;-42
2021/12/31 06:23:17;;;;;;;2.42;1.48;;;;;;;11.68;87.64;101751.19;4975395;28;100755;-41
2021/12/31 06:25:43;;;;;;;1.25;0.93;;;;;;;11.48;87.57;101719.63;4976920;28;96594;-42
2021/12/31 06:28:09;;;;;;;2.13;0.85;;;;;;;11.59;87.53;101724.50;4976936;28;96741;-42
2021/12/31 06:30:34;;;;;;;4.30;1.35;;;;;;;11.63;87.62;101739.66;4975840;28;98047;-42
2021/12/31 06:33:00;;;;;;;2.50;1.42;;;;;;;11.60;87.73;101721.69;4975529;28;114457;-42
2021/12/31 06:35:26;;;;;;;2.13;1.25;;;;;;;11.53;87.69;101716.69;4976521;28;96744;-42
2021/12/31 06:37:53;;;;;;;4.18;1.38;;;;;;;11.58;87.70;101717.31;4976621;28;96799;-42
2021/12/31 06:40:18;;;;;;;5.82;2.00;;;;;;;11.57;87.39;101715.56;4976310;28;97966;-42
2021/12/31 06:42:44;;;;;;;3.00;1.70;;;;;;;11.45;87.86;101708.94;4976218;28;97817;-42
2021/12/31 06:45:09;;;;;;;6.95;1.58;;;;;;;11.47;87.94;101717.88;4975995;28;107012;-41
2021/12/31 06:47:35;;;;;;;2.38;1.58;;;;;;;11.35;87.78;101694.97;4976710;28;97015;-42
2021/12/31 06:50:00;;;;;;;5.25;1.48;;;;;;;11.42;87.64;101718.13;4974619;28;100915;-42
2021/12/31 06:52:26;;;;;;;3.55;1.40;;;;;;;11.36;88.03;101703.97;4975927;28;99232;-42
2021/12/31 06:54:51;;;;;;;4.05;1.70;;;;;;;11.40;87.66;101714.59;4975887;28;96597;-42
2021/12/31 06:57:16;;;;;;;4.88;2.47;;;;;;;11.52;87.66;101734.78;4976227;28;96794;-42
2021/12/31 06:59:42;;;;;;;2.25;1.27;;;;;;;11.51;87.55;101737.56;4975837;28;103238;-41
2021/12/31 07:02:08;;;;;;;6.63;2.15;;;;;;;11.52;88.02;101750.22;4974256;28;100837;-42
2021/12/31 07:04:33;;;;;;;4.53;1.75;;;;;;;11.41;87.74;101726.31;4975344;28;96601;-42
2021/12/31 07:06:59;;;;;;;2.85;1.73;;;;;;;11.42;87.67;101745.25;4976274;28;96777;-41
2021/12/31 07:09:24;;;;;;;4.03;1.60;;;;;;;11.39;88.02;101734.56;4975548;28;99216;-42
2021/12/31 07:11:49;;;;;;;3.45;1.33;;;;;;;11.48;87.77;101758.47;4975992;28;99222;-42
2021/12/31 07:14:14;;;;;;;2.03;1.42;;;;;;;11.48;87.71;101761.19;4976201;28;96841;-42
2021/12/31 07:16:40;;;;;;;3.17;1.38;;;;;;;11.39;87.63;101755.34;4973686;28;112889;-42
2021/12/31 07:19:05;;;;;;;5.50;2.00;;;;;;;11.38;87.86;101759.91;4975335;28;97911;-42
2021/12/31 07:21:30;;;;;;;4.18;1.90;;;;;;;11.36;87.73;101758.22;4974803;28;124354;-42
2021/12/31 07:23:56;;;;;;;6.32;1.90;;;;;;;11.40;88.07;101767.97;4975304;28;106878;-42
2021/12/31 07:26:21;;;;;;;6.50;1.42;;;;;;;11.45;87.43;101784.91;4976010;28;96797;-41
2021/12/31 07:28:46;;;;;;;3.42;1.42;;;;;;;11.41;87.55;101765.16;4975623;28;97508;-42
2021/12/31 07:31:14;;;;;;;4.85;1.58;;;;;;;11.45;87.74;101777.63;4974614;28;117625;-42
2021/12/31 07:33:39;;;;;;;4.40;1.95;;;;;;;11.35;87.58;101765.50;4975541;28;96496;-42
2021/12/31 07:36:05;;;;;;;2.83;1.55;;;;;;;11.37;87.51;101765.41;4974660;28;96881;-42
2021/12/31 07:38:36;;;;;;;5.85;1.42;;;;;;;11.43;87.50;101760.56;4975305;28;99775;-42
2021/12/31 07:41:03;;;;;;;4.60;2.00;;;;;;;11.28;87.76;101739.63;4974125;28;100547;-42
2021/12/31 07:43:29;;;;;;;4.05;1.55;;;;;;;11.40;87.43;101762.56;4973620;28;96593;-42
2021/12/31 07:45:54;;;;;;;2.95;1.40;;;;;;;11.34;87.49;101733.88;4975400;28;96534;-42
2021/12/31 07:48:21;;;;;;;3.05;1.85;;;;;;;11.43;87.35;101746.13;4975325;28;97889;-42
2021/12/31 07:50:47;;;;;;;2.85;1.42;;;;;;;11.38;87.21;101762.63;4973772;28;101367;-42
2021/12/31 07:53:12;;;;;;;4.55;1.65;;;;;;;11.36;87.35;101748.25;4975622;28;96470;-42
2021/12/31 07:55:38;;;;;;;2.53;1.20;;;;;;;11.34;86.95;101738.44;4975091;28;96884;-41
2021/12/31 07:58:05;;;;;;;3.75;1.50;;;;;;;11.41;87.25;101764.31;4975235;28;97435;-42
2021/12/31 08:00:31;;;;;;;3.50;1.70;;;;;;;11.40;87.60;101760.72;4974911;28;98170;-42
2021/12/31 08:02:57;;;;;;;3.45;1.90;;;;;;;11.26;87.25;101741.53;4974081;28;96734;-42
2021/12/31 08:05:23;;;;;;;2.42;1.52;;;;;;;11.32;87.50;101748.47;4973840;28;96767;-42
2021/12/31 08:07:49;;;;;;;5.32;1.85;;;;;;;11.35;87.22;101756.50;4973055;28;101394;-42
2021/12/31 08:10:14;;;;;;;5.60;2.00;;;;;;;11.39;87.21;101772.53;4974545;28;108424;-42
2021/12/31 08:12:40;;;;;;;7.30;1.48;;;;;;;11.30;87.46;101766.66;4974225;28;116836;-42
2021/12/31 08:15:06;;;;;;;2.15;1.23;;;;;;;11.30;87.45;101767.56;4974338;28;110547;-42
2021/12/31 08:17:31;;;;;;;5.28;1.50;;;;;;;11.41;87.31;101786.00;4972398;28;101194;-42
2021/12/31 08:19:56;;;;;;;3.38;1.25;;;;;;;11.37;86.94;101788.00;4974604;28;99149;-42
2021/12/31 08:22:22;;;;;;;3.25;1.02;;;;;;;11.32;87.40;101781.94;4975190;28;96714;-42
2021/12/31 08:24:48;;;;;;;2.38;1.38;;;;;;;11.41;87.21;101786.00;4975434;28;96733;-42
2021/12/31 08:27:13;;;;;;;2.70;1.70;;;;;;;11.38;87.38;101769.88;4974758;28;97974;-41
2021/12/31 08:29:38;;;;;;;3.28;1.80;;;;;;;11.41;87.48;101772.44;4974602;28;97732;-41
2021/12/31 08:32:04;;;;;;;3.97;1.90;;;;;;;11.35;87.23;101762.78;4973464;28;119223;-41
2021/12/31 08:34:29;;;;;;;2.83;1.58;;;;;;;11.31;87.40;101753.03;4973448;28;96914;-41
2021/12/31 08:36:55;;;;;;;5.65;1.27;;;;;;;11.34;87.24;101762.84;4973823;28;121184;-41
2021/12/31 08:39:20;;;;;;;1.55;1.10;;;;;;;11.46;87.31;101773.97;4974680;28;104899;-41
2021/12/31 08:41:45;;;;;;;2.80;1.25;;;;;;;11.35;86.98;101748.34;4975130;28;96616;-41
2021/12/31 08:44:11;;;;;;;1.65;1.10;;;;;;;11.45;86.92;101776.75;4974906;28;96785;-41
2021/12/31 08:46:37;;;;;;;3.97;1.85;;;;;;;11.44;87.13;101775.88;4974155;28;110171;-41
2021/12/31 08:49:03;;;;;;;5.40;1.70;;;;;;;11.45;87.12;101790.31;4973250;28;100908;-41
2021/12/31 08:51:28;;;;;;;3.17;1.42;;;;;;;11.44;87.20;101797.59;4974854;28;96646;-41
2021/12/31 08:53:54;;;;;;;2.28;1.30;;;;;;;11.35;87.07;101767.34;4974610;28;97006;-41
2021/12/31 08:56:20;;;;;;;2.60;1.77;;;;;;;11.35;86.95;101761.91;4972262;28;100575;-41
2021/12/31 08:58:46;;;;;;;2.15;1.48;;;;;;;11.35;86.93;101756.50;4972731;28;100670;-41
2021/12/31 09:01:11;;;;;;;2.45;1.60;;;;;;;11.30;86.79;101767.56;4972706;28;96697;-41
2021/12/31 09:03:37;;;;;;;4.72;1.60;;;;;;;11.43;87.01;101798.53;4973846;28;113094;-41
2021/12/31 09:06:02;;;;;;;1.92;1.30;;;;;;;11.45;87.09;101784.91;4973900;28;109633;-41
2021/12/31 09:08:28;;;;;;;5.03;1.70;;;;;;;11.42;86.91;101776.94;4974120;28;99769;-41
2021/12/31 09:10:54;;;;;;;3.40;1.17;;;;;;;11.47;86.89;101774.84;4973033;28;98080;-41
2021/12/31 09:13:19;;;;;;;4.60;1.25;;;;;;;11.37;86.71;101788.00;4974398;28;102113;-40
2021/12/31 09:15:45;;;;;;;7.18;1.90;;;;;;;11.37;86.25;101779.88;4974180;28;97833;-41
2021/12/31 09:18:11;;;;;;;3.90;1.60;;;;;;;11.47;86.82;101799.28;4973237;28;123202;-41
2021/12/31 09:20:36;;;;;;;6.90;1.70;;;;;;;11.46;86.65;101833.66;4972407;28;97414;-41
2021/12/31 09:23:02;;;;;;;3.83;2.00;;;;;;;11.43;86.73;101806.66;4974395;28;96796;-41
2021/12/31 09:25:33;;;;;;;10.90;5.32;;;;;;;11.48;86.97;101815.44;4974036;28;97975;-41
2021/12/31 09:27:59;;;;;;;3.63;1.93;;;;;;;11.45;86.59;101823.75;4974424;28;112469;-41
2021/12/31 09:30:24;;;;;;;3.17;1.45;;;;;;;11.29;86.75;101794.75;4977516;28;96512;-41
2021/12/31 09:32:50;;;;;;;4.15;1.85;;;;;;;11.40;86.74;101812.25;4977736;28;96794;-41
2021/12/31 09:35:15;;;;;;;2.63;1.27;;;;;;;11.28;86.46;101788.47;4977330;28;97461;-41
2021/12/31 09:37:41;;;;;;;2.08;1.40;;;;;;;11.41;86.57;101796.84;4977040;28;118207;-41
2021/12/31 09:40:08;;;;;;;5.07;1.25;;;;;;;11.44;86.61;101829.25;4977531;28;96571;-41
2021/12/31 09:42:34;;;;;;;2.38;1.33;;;;;;;11.46;87.01;101828.25;4975856;28;96920;-41
2021/12/31 09:44:59;;;;;;;3.50;1.80;;;;;;;11.42;86.79;101826.63;4976375;28;106360;-41
2021/12/31 09:47:24;;;;;;;4.15;1.55;;;;;;;11.43;87.41;101844.66;4976937;28;97919;-41
2021/12/31 09:49:50;;;;;;;3.58;1.60;;;;;;;11.42;87.00;101842.91;4977351;28;96860;-41
2021/12/31 09:52:17;;;;;;;3.40;1.70;;;;;;;11.46;87.17;101832.75;4977217;28;97819;-41
2021/12/31 09:54:44;;;;;;;3.67;2.00;;;;;;;11.47;86.92;101829.13;4975636;28;100836;-41
2021/12/31 09:57:17;;;;;;;4.32;2.20;;;;;;;11.48;86.98;101831.72;4975079;28;100773;-41
2021/12/31 09:59:42;;;;;;;5.00;2.17;;;;;;;11.48;86.96;101820.88;4975965;28;96638;-41
2021/12/31 10:02:09;;;;;;;5.15;2.60;;;;;;;11.47;87.01;101819.13;4976121;28;97010;-41
2021/12/31 10:04:54;;;;;;;2.83;1.48;;;;;;;11.49;86.89;101824.50;4975570;28;99131;-41
2021/12/31 10:07:21;;;;;;;5.15;1.77;;;;;;;11.49;86.71;101832.63;4975364;28;100979;-41
2021/12/31 10:10:13;;;;;;;3.65;1.88;;;;;;;11.48;86.80;101826.31;4976466;28;97103;-41
2021/12/31 10:12:53;;;;;;;3.85;1.80;;;;;;;11.21;86.61;101809.56;4976067;28;97025;-41
2021/12/31 10:15:21;;;;;;;5.68;1.67;;;;;;;11.45;86.55;101856.31;4980094;28;100971;-41
2021/12/31 10:17:46;;;;;;;9.07;2.55;;;;;;;11.39;86.93;101834.03;4981700;28;100785;-41
2021/12/31 10:20:13;;;;;;;7.40;2.55;;;;;;;11.35;86.83;101844.16;4985291;28;96831;-41
2021/12/31 10:22:38;;;;;;;3.90;2.33;;;;;;;11.45;86.73;101836.44;4990052;28;96985;-42
2021/12/31 10:25:20;;;;;;;4.40;1.90;;;;;;;11.21;86.76;101793.28;4993392;28;100802;-42
2021/12/31 10:27:45;;;;;;;4.30;2.47;;;;;;;11.47;86.86;101799.28;4995754;28;99120;-41
2021/12/31 10:30:11;;;;;;;3.35;2.17;;;;;;;11.37;86.71;101768.09;4996658;28;96526;-41
2021/12/31 10:32:40;;;;;;;3.45;1.83;;;;;;;11.32;86.71;101760.22;4996418;28;96882;-41
2021/12/31 10:35:10;;;;;;;2.63;1.55;;;;;;;11.48;86.32;101750.34;4994294;28;101416;-41
2021/12/31 10:37:49;;;;;;;6.47;2.33;;;;;;;11.52;86.67;101733.94;4996209;28;97858;-41
2021/12/31 10:40:45;;;;;;;5.65;1.27;;;;;;;11.43;86.32;101702.72;4995418;28;96636;-41
2021/12/31 10:43:22;;;;;;;2.47;1.35;;;;;;;11.48;86.27;101714.19;4996461;28;96573;-41
2021/12/31 10:46:05;;;;;;;5.63;2.50;;;;;;;11.62;86.37;101746.94;4994704;28;101025;-41
2021/12/31 10:49:06;;;;;;;;;;;;;;;11.68;86.30;101775.59;4996725;28;97774;-41
2021/12/31 10:51:34;;;;;;;3.35;2.20;;;;;;;11.72;86.03;101784.44;4995647;28;96814;-41
2021/12/31 10:54:30;;;;;;;7.72;2.38;;;;;;;11.69;85.68;101778.22;4996626;28;96776;-41
2021/12/31 10:56:56;;;;;;;7.15;2.35;;;;;;;11.78;86.02;101785.03;4994402;28;101436;-41
2021/12/31 10:59:22;;;;;;;2.90;1.60;;;;;;;11.84;85.65;101784.69;4994313;28;100871;-42
2021/12/31 11:01:48;;;;;;;5.20;2.20;;;;;;;11.90;85.37;101789.84;4995286;28;96557;-41
2021/12/31 11:04:16;;;;;;;2.83;1.63;;;;;;;11.94;85.34;101796.00;4994597;28;96889;-41
2021/12/31 11:06:41;;;;;;;7.35;2.83;;;;;;;11.94;85.22;101795.09;4995766;28;97554;-41
2021/12/31 11:09:07;;;;;;;6.28;2.38;;;;;;;11.95;85.52;101805.03;4995730;28;97852;-41
2021/12/31 11:11:35;;;;;;;5.03;2.58;;;;;;;11.84;85.22;101767.53;4994614;28;96659;-41
2021/12/31 11:14:02;;;;;;;5.88;2.38;;;;;;;12.00;85.35;101800.22;4994529;28;96911;-42
2021/12/31 11:16:28;;;;;;;6.00;2.53;;;;;;;11.94;85.47;101812.28;4995491;28;98071;-41
2021/12/31 11:18:54;;;;;;;3.90;2.03;;;;;;;11.89;85.95;101804.38;4995741;28;99298;-42
2021/12/31 11:21:20;;;;;;;4.70;1.92;;;;;;;11.64;86.32;101763.13;4994381;28;96495;-41
2021/12/31 11:23:45;;;;;;;4.10;1.92;;;;;;;11.82;86.41;101807.44;4995698;28;96826;-41